createdAt,value
2018-02-18T00:02:00.325Z,51.04
2018-02-18T00:04:28.699Z,53.03
2018-02-18T00:06:57.393Z,54.87
2018-02-18T00:09:25.783Z,53.68
2018-02-18T00:11:54.144Z,53.83
2018-02-18T00:14:28.149Z,53.24
2018-02-18T00:16:56.523Z,53.52
2018-02-18T00:19:24.888Z,52.15
2018-02-18T00:21:53.676Z,52.96
2018-02-18T00:24:22.427Z,51.78
2018-02-18T00:26:50.794Z,51.86
2018-02-18T00:29:19.162Z,51.75
2018-02-18T00:31:47.535Z,51.20
2018-02-18T00:34:15.893Z,51.49
2018-02-18T00:36:44.286Z,51.13
2018-02-18T00:39:12.671Z,51.27
2018-02-18T00:41:41.037Z,51.09
2018-02-18T00:44:09.395Z,50.91
2018-02-18T00:46:37.780Z,50.37
2018-02-18T00:49:06.154Z,51.03
2018-02-18T00:51:34.543Z,51.22
2018-02-18T00:54:02.912Z,51.96
2018-02-18T00:56:31.325Z,52.81
2018-02-18T00:58:59.712Z,52.95
2018-02-18T01:01:28.080Z,54.23
2018-02-18T01:03:56.445Z,54.32
2018-02-18T01:06:24.828Z,53.28
2018-02-18T01:08:53.191Z,52.57
2018-02-18T01:11:21.556Z,53.46
2018-02-18T01:13:49.920Z,53.32
2018-02-18T01:16:18.687Z,52.30
2018-02-18T01:18:47.051Z,52.46
2018-02-18T01:21:15.420Z,52.37
2018-02-18T01:23:43.794Z,52.63
2018-02-18T01:26:12.150Z,53.26
2018-02-18T01:28:40.517Z,53.44
2018-02-18T01:31:08.908Z,52.62
2018-02-18T01:33:37.259Z,52.39
2018-02-18T01:36:06.021Z,52.12
2018-02-18T01:38:34.385Z,52.66
2018-02-18T01:41:02.760Z,52.24
2018-02-18T01:43:31.130Z,52.27
2018-02-18T01:45:59.496Z,51.45
2018-02-18T01:48:27.848Z,51.73
2018-02-18T01:50:56.646Z,51.70
2018-02-18T01:53:25.552Z,52.36
2018-02-18T01:55:53.972Z,52.53
2018-02-18T01:58:22.328Z,52.98
2018-02-18T02:00:50.688Z,52.87
2018-02-18T02:03:19.053Z,52.13
2018-02-18T02:05:47.439Z,51.15
2018-02-18T02:08:15.813Z,50.98
2018-02-18T02:10:44.197Z,50.96
2018-02-18T02:13:12.562Z,50.92
2018-02-18T02:15:41.330Z,51.37
2018-02-18T02:18:09.682Z,51.54
2018-02-18T02:20:38.066Z,51.01
2018-02-18T02:23:06.433Z,52.55
2018-02-18T02:25:34.811Z,51.74
2018-02-18T02:28:03.192Z,52.55
2018-02-18T02:30:31.565Z,53.05
2018-02-18T02:32:59.931Z,52.43
2018-02-18T02:35:28.292Z,52.06
2018-02-18T02:37:56.649Z,51.81
2018-02-18T02:40:25.435Z,51.50
2018-02-18T02:42:54.186Z,51.24
2018-02-18T02:45:22.561Z,50.85
2018-02-18T02:47:50.920Z,50.53
2018-02-18T02:50:19.284Z,50.28
2018-02-18T02:52:47.650Z,50.07
2018-02-18T02:55:16.017Z,49.96
2018-02-18T02:57:44.776Z,49.94
2018-02-18T03:00:13.146Z,50.18
2018-02-18T03:02:41.508Z,50.28
2018-02-18T03:05:09.896Z,50.33
2018-02-18T03:07:38.283Z,50.45
2018-02-18T03:10:06.653Z,50.07
2018-02-18T03:12:35.266Z,50.85
2018-02-18T03:15:03.620Z,51.05
2018-02-18T03:17:31.974Z,50.99
2018-02-18T03:20:00.340Z,50.58
2018-02-18T03:22:28.692Z,50.18
2018-02-18T03:24:57.447Z,50.05
2018-02-18T03:27:25.833Z,50.38
2018-02-18T03:29:54.188Z,50.61
2018-02-18T03:32:22.540Z,50.82
2018-02-18T03:34:50.897Z,50.75
2018-02-18T03:37:19.721Z,50.42
2018-02-18T03:39:48.105Z,50.25
2018-02-18T03:42:16.452Z,50.72
2018-02-18T03:44:45.213Z,50.52
2018-02-18T03:47:13.578Z,51.53
2018-02-18T03:49:41.927Z,51.91
2018-02-18T03:52:10.294Z,52.24
2018-02-18T03:54:38.647Z,52.07
2018-02-18T03:57:07.407Z,51.63
2018-02-18T03:59:35.763Z,50.94
2018-02-18T04:02:04.133Z,51.99
2018-02-18T04:04:32.498Z,51.37
2018-02-18T04:07:00.861Z,51.64
2018-02-18T04:09:29.212Z,52.18
2018-02-18T04:11:57.991Z,52.79
2018-02-18T04:14:26.354Z,51.66
2018-02-18T04:16:54.733Z,50.96
2018-02-18T04:19:23.079Z,50.56
2018-02-18T04:21:51.440Z,50.51
2018-02-18T04:24:20.184Z,51.63
2018-02-18T04:26:48.556Z,51.40
2018-02-18T04:29:17.538Z,51.32
2018-02-18T04:31:45.901Z,50.54
2018-02-18T04:34:14.276Z,50.24
2018-02-18T04:36:42.636Z,50.36
2018-02-18T04:39:11.000Z,50.79
2018-02-18T04:41:39.758Z,49.85
2018-02-18T04:44:08.106Z,49.71
2018-02-18T04:46:36.494Z,49.61
2018-02-18T04:49:04.886Z,49.89
2018-02-18T04:51:33.260Z,50.19
2018-02-18T04:54:01.635Z,50.32
2018-02-18T04:56:30.113Z,49.73
2018-02-18T04:58:58.456Z,49.92
2018-02-18T05:01:26.809Z,49.95
2018-02-18T05:03:55.208Z,50.14
2018-02-18T05:06:24.398Z,50.45
2018-02-18T05:08:53.252Z,49.84
2018-02-18T05:11:21.627Z,49.67
2018-02-18T05:13:50.010Z,49.59
2018-02-18T05:16:18.380Z,49.64
2018-02-18T05:18:46.755Z,49.51
2018-02-18T05:21:15.116Z,49.85
2018-02-18T05:23:43.464Z,50.06
2018-02-18T05:26:12.239Z,50.69
2018-02-18T05:28:41.092Z,49.73
2018-02-18T05:31:09.435Z,49.66
2018-02-18T05:33:37.788Z,49.98
2018-02-18T05:36:06.580Z,49.29
2018-02-18T05:38:35.347Z,48.80
2018-02-18T05:41:03.708Z,48.81
2018-02-18T05:43:32.084Z,47.09
2018-02-18T05:46:00.947Z,47.48
2018-02-18T05:48:29.292Z,47.71
2018-02-18T05:50:58.064Z,46.35
2018-02-18T05:53:26.437Z,45.81
2018-02-18T05:55:54.804Z,44.83
2018-02-18T05:58:23.161Z,44.25
2018-02-18T06:00:51.534Z,44.19
2018-02-18T06:03:19.894Z,44.32
2018-02-18T06:05:48.243Z,44.57
2018-02-18T06:08:16.629Z,44.60
2018-02-18T06:10:45.368Z,44.51
2018-02-18T06:13:13.728Z,44.38
2018-02-18T06:15:42.076Z,44.16
2018-02-18T06:18:10.853Z,44.15
2018-02-18T06:20:40.168Z,43.92
2018-02-18T06:23:08.907Z,45.09
2018-02-18T06:25:37.289Z,43.75
2018-02-18T06:28:05.691Z,43.19
2018-02-18T06:30:34.050Z,43.40
2018-02-18T06:33:02.411Z,43.63
2018-02-18T06:35:30.765Z,43.37
2018-02-18T06:37:59.109Z,43.87
2018-02-18T06:40:27.476Z,43.79
2018-02-18T06:42:55.823Z,42.96
2018-02-18T06:45:24.180Z,43.29
2018-02-18T06:47:52.549Z,42.72
2018-02-18T06:50:20.900Z,42.19
2018-02-18T06:52:49.280Z,42.65
2018-02-18T06:55:17.627Z,42.10
2018-02-18T06:57:45.977Z,42.49
2018-02-18T07:00:14.329Z,42.66
2018-02-18T07:02:43.072Z,43.33
2018-02-18T07:05:11.427Z,42.67
2018-02-18T07:07:39.772Z,41.97
2018-02-18T07:10:08.554Z,41.68
2018-02-18T07:12:37.383Z,41.04
2018-02-18T07:15:05.739Z,40.59
2018-02-18T07:17:34.096Z,41.42
2018-02-18T07:20:02.867Z,41.38
2018-02-18T07:22:31.246Z,40.88
2018-02-18T07:24:59.628Z,40.40
2018-02-18T07:27:27.979Z,40.20
2018-02-18T07:29:56.353Z,39.87
2018-02-18T07:32:24.722Z,39.35
2018-02-18T07:34:53.093Z,39.23
2018-02-18T07:37:21.499Z,39.04
2018-02-18T07:39:49.822Z,38.58
2018-02-18T07:42:18.580Z,38.21
2018-02-18T07:44:46.952Z,38.62
2018-02-18T07:47:15.303Z,38.55
2018-02-18T07:49:43.677Z,39.38
2018-02-18T07:52:12.060Z,38.98
2018-02-18T07:54:40.424Z,38.79
2018-02-18T07:57:08.805Z,39.39
2018-02-18T07:59:37.159Z,39.88
2018-02-18T08:02:05.956Z,39.34
2018-02-18T08:04:34.743Z,39.47
2018-02-18T08:07:03.123Z,39.85
2018-02-18T08:09:31.886Z,39.56
2018-02-18T08:12:00.252Z,39.83
2018-02-18T08:14:28.611Z,40.85
2018-02-18T08:16:56.977Z,41.30
2018-02-18T08:19:25.347Z,40.54
2018-02-18T08:21:53.719Z,40.00
2018-02-18T08:24:22.107Z,39.70
2018-02-18T08:26:50.617Z,39.60
2018-02-18T08:29:19.396Z,39.26
2018-02-18T08:31:47.781Z,39.38
2018-02-18T08:34:16.140Z,39.76
2018-02-18T08:36:44.532Z,39.77
2018-02-18T08:39:12.880Z,40.73
2018-02-18T08:41:41.288Z,41.39
2018-02-18T08:44:09.644Z,41.20
2018-02-18T08:46:38.004Z,41.11
2018-02-18T08:49:06.766Z,41.14
2018-02-18T08:51:35.144Z,41.63
2018-02-18T08:54:03.514Z,41.26
2018-02-18T08:56:31.888Z,40.91
2018-02-18T08:59:00.255Z,40.49
2018-02-18T09:01:28.617Z,40.64
2018-02-18T09:03:57.000Z,42.07
2018-02-18T09:06:25.414Z,42.74
2018-02-18T09:08:53.775Z,42.15
2018-02-18T09:11:22.158Z,42.24
2018-02-18T09:13:50.521Z,41.59
2018-02-18T09:16:18.884Z,40.64
2018-02-18T09:18:47.257Z,39.85
2018-02-18T09:21:15.627Z,39.34
2018-02-18T09:23:43.985Z,38.71
2018-02-18T09:26:12.746Z,39.78
2018-02-18T09:28:41.126Z,40.04
2018-02-18T09:31:09.507Z,39.80
2018-02-18T09:33:37.897Z,39.62
2018-02-18T09:36:06.275Z,39.65
2018-02-18T09:38:34.654Z,39.23
2018-02-18T09:41:03.455Z,38.95
2018-02-18T09:43:32.217Z,39.33
2018-02-18T09:46:00.621Z,38.45
2018-02-18T09:48:29.419Z,38.61
2018-02-18T09:50:58.201Z,38.20
2018-02-18T09:53:26.964Z,38.07
2018-02-18T09:55:55.353Z,37.71
2018-02-18T09:58:23.721Z,37.35
2018-02-18T10:00:52.093Z,37.47
2018-02-18T10:03:20.484Z,38.84
2018-02-18T10:05:48.888Z,37.88
2018-02-18T10:08:17.645Z,37.43
2018-02-18T10:10:46.013Z,37.17
2018-02-18T10:13:14.377Z,37.69
2018-02-18T10:15:42.765Z,37.60
2018-02-18T10:18:11.141Z,38.00
2018-02-18T10:20:39.552Z,37.64
2018-02-18T10:23:07.905Z,37.69
2018-02-18T10:25:36.286Z,37.90
2018-02-18T10:28:04.660Z,37.19
2018-02-18T10:30:33.036Z,36.41
2018-02-18T10:33:01.405Z,36.60
2018-02-18T10:35:29.773Z,36.64
2018-02-18T10:37:58.189Z,36.66
2018-02-18T10:40:26.580Z,36.40
2018-02-18T10:42:54.947Z,37.24
2018-02-18T10:45:23.334Z,35.77
2018-02-18T10:47:51.696Z,35.72
2018-02-18T10:50:20.053Z,35.61
2018-02-18T10:52:48.432Z,35.15
2018-02-18T10:55:16.807Z,36.05
2018-02-18T10:57:45.193Z,36.01
2018-02-18T11:00:13.559Z,35.80
2018-02-18T11:02:41.958Z,35.96
2018-02-18T11:05:10.341Z,35.92
2018-02-18T11:07:38.707Z,35.83
2018-02-18T11:10:07.077Z,36.53
2018-02-18T11:12:35.477Z,36.50
2018-02-18T11:15:03.859Z,36.80
2018-02-18T11:17:32.233Z,36.80
2018-02-18T11:20:00.620Z,36.45
2018-02-18T11:22:28.989Z,35.74
2018-02-18T11:24:57.369Z,35.64
2018-02-18T11:27:25.988Z,35.34
2018-02-18T11:29:54.488Z,35.67
2018-02-18T11:32:22.872Z,34.94
2018-02-18T11:34:51.245Z,33.96
2018-02-18T11:37:20.016Z,34.22
2018-02-18T11:39:48.391Z,34.21
2018-02-18T11:42:16.770Z,32.87
2018-02-18T11:44:45.610Z,33.41
2018-02-18T11:47:13.977Z,33.51
2018-02-18T11:49:42.340Z,33.25
2018-02-18T11:52:11.107Z,32.70
2018-02-18T11:54:39.485Z,31.73
2018-02-18T11:57:07.884Z,31.98
2018-02-18T11:59:36.253Z,32.46
2018-02-18T12:02:05.025Z,32.99
2018-02-18T12:04:33.424Z,33.28
2018-02-18T12:07:02.218Z,33.79
2018-02-18T12:09:30.591Z,33.02
2018-02-18T12:11:59.361Z,32.97
2018-02-18T12:14:27.740Z,32.75
2018-02-18T12:16:56.119Z,32.53
2018-02-18T12:19:24.502Z,33.14
2018-02-18T12:21:52.928Z,32.89
2018-02-18T12:24:21.776Z,33.00
2018-02-18T12:26:50.560Z,33.67
2018-02-18T12:29:19.333Z,34.57
2018-02-18T12:31:47.877Z,34.25
2018-02-18T12:34:16.305Z,33.55
2018-02-18T12:36:44.668Z,34.41
2018-02-18T12:39:13.044Z,33.96
2018-02-18T12:41:41.405Z,33.79
2018-02-18T12:44:09.798Z,34.61
2018-02-18T12:46:38.165Z,35.09
2018-02-18T12:49:06.549Z,35.07
2018-02-18T12:51:34.917Z,34.32
2018-02-18T12:54:03.311Z,34.22
2018-02-18T12:56:31.692Z,34.35
2018-02-18T12:59:00.058Z,34.44
2018-02-18T13:01:28.571Z,34.07
2018-02-18T13:03:56.950Z,34.25
2018-02-18T13:06:25.316Z,33.86
2018-02-18T13:08:53.701Z,34.11
2018-02-18T13:11:22.059Z,34.07
2018-02-18T13:13:50.432Z,34.66
2018-02-18T13:16:18.806Z,35.24
2018-02-18T13:18:47.192Z,35.35
2018-02-18T13:21:15.553Z,35.23
2018-02-18T13:23:43.930Z,35.90
2018-02-18T13:26:12.297Z,36.20
2018-02-18T13:28:40.673Z,38.17
2018-02-18T13:31:09.038Z,37.99
2018-02-18T13:33:37.797Z,37.41
2018-02-18T13:36:06.145Z,37.19
2018-02-18T13:38:34.521Z,37.47
2018-02-18T13:41:02.873Z,37.35
2018-02-18T13:43:31.262Z,36.87
2018-02-18T13:45:59.650Z,38.31
2018-02-18T13:48:28.033Z,38.87
2018-02-18T13:50:56.387Z,38.99
2018-02-18T13:53:24.788Z,38.87
2018-02-18T13:55:53.157Z,38.43
2018-02-18T13:58:21.552Z,38.30
2018-02-18T14:00:49.917Z,37.94
2018-02-18T14:03:18.293Z,37.80
2018-02-18T14:05:46.661Z,36.99
2018-02-18T14:08:15.051Z,36.30
2018-02-18T14:10:43.449Z,35.70
2018-02-18T14:13:11.816Z,35.28
2018-02-18T14:15:40.173Z,35.06
2018-02-18T14:18:08.934Z,35.32
2018-02-18T14:20:37.288Z,35.12
2018-02-18T14:23:05.685Z,35.91
2018-02-18T14:25:34.050Z,35.59
2018-02-18T14:28:02.428Z,35.68
2018-02-18T14:30:30.787Z,36.16
2018-02-18T14:32:59.160Z,35.88
2018-02-18T14:35:27.520Z,35.63
2018-02-18T14:37:55.885Z,35.29
2018-02-18T14:40:24.652Z,34.94
2018-02-18T14:43:11.256Z,34.83
2018-02-18T14:45:57.317Z,34.81
2018-02-18T14:48:43.467Z,34.87
2018-02-18T14:51:30.240Z,35.43
2018-02-18T14:54:17.073Z,36.15
2018-02-18T14:56:55.026Z,36.29
2018-02-18T14:59:23.444Z,35.78
2018-02-18T15:01:51.816Z,35.20
2018-02-18T15:04:20.188Z,34.86
2018-02-18T15:06:48.585Z,34.48
2018-02-18T15:09:16.988Z,34.29
2018-02-18T15:11:45.364Z,34.21
2018-02-18T15:14:14.237Z,34.35
2018-02-18T15:16:42.616Z,34.13
2018-02-18T15:19:10.984Z,34.17
2018-02-18T15:21:39.337Z,34.23
2018-02-18T15:24:07.732Z,34.36
2018-02-18T15:26:36.111Z,34.24
2018-02-18T15:29:04.515Z,34.00
2018-02-18T15:31:33.277Z,34.70
2018-02-18T15:34:01.633Z,34.26
2018-02-18T15:36:29.996Z,34.48
2018-02-18T15:38:58.390Z,34.81
2018-02-18T15:41:26.758Z,34.94
2018-02-18T15:43:55.137Z,35.52
2018-02-18T15:46:23.495Z,35.35
2018-02-18T15:48:51.889Z,35.58
2018-02-18T15:51:20.252Z,35.41
2018-02-18T15:53:48.640Z,35.43
2018-02-18T15:56:17.021Z,35.57
2018-02-18T15:58:45.427Z,35.61
2018-02-18T16:01:13.783Z,35.23
2018-02-18T16:03:42.258Z,34.99
2018-02-18T16:06:10.783Z,35.30
2018-02-18T16:08:39.174Z,35.03
2018-02-18T16:11:07.541Z,35.16
2018-02-18T16:13:35.954Z,35.50
2018-02-18T16:16:04.729Z,35.88
2018-02-18T16:18:33.109Z,35.54
2018-02-18T16:21:01.491Z,35.98
2018-02-18T16:23:29.864Z,36.31
2018-02-18T16:25:58.424Z,36.06
2018-02-18T16:28:26.792Z,36.53
2018-02-18T16:30:55.166Z,36.28
2018-02-18T16:33:23.574Z,36.40
2018-02-18T16:35:51.948Z,36.90
2018-02-18T16:38:20.318Z,36.90
2018-02-18T16:40:48.697Z,36.59
2018-02-18T16:43:17.156Z,36.90
2018-02-18T16:45:45.485Z,36.89
2018-02-18T16:48:13.854Z,36.89
2018-02-18T16:50:42.221Z,37.17
2018-02-18T16:53:10.580Z,37.09
2018-02-18T16:55:38.972Z,37.25
2018-02-18T16:58:07.375Z,37.54
2018-02-18T17:00:35.745Z,37.26
2018-02-18T17:03:04.121Z,37.97
2018-02-18T17:05:32.486Z,37.38
2018-02-18T17:08:00.861Z,38.01
2018-02-18T17:10:29.220Z,37.88
2018-02-18T17:12:57.600Z,37.79
2018-02-18T17:15:25.966Z,37.70
2018-02-18T17:17:54.348Z,37.56
2018-02-18T17:20:22.707Z,37.52
2018-02-18T17:22:51.087Z,37.66
2018-02-18T17:25:19.836Z,37.86
2018-02-18T17:27:48.194Z,38.18
2018-02-18T17:30:16.549Z,38.20
2018-02-18T17:32:44.923Z,38.59
2018-02-18T17:35:13.283Z,39.33
2018-02-18T17:37:42.040Z,38.83
2018-02-18T17:40:10.439Z,38.56
2018-02-18T17:42:39.881Z,38.69
2018-02-18T17:45:08.244Z,38.70
2018-02-18T17:47:36.692Z,38.41
2018-02-18T17:50:05.080Z,38.14
2018-02-18T17:52:33.945Z,38.40
2018-02-18T17:55:02.296Z,38.30
2018-02-18T17:57:30.678Z,38.21
2018-02-18T17:59:59.035Z,38.05
2018-02-18T18:02:27.392Z,38.24
2018-02-18T18:04:56.145Z,38.70
2018-02-18T18:07:24.492Z,38.41
2018-02-18T18:09:52.856Z,37.81
2018-02-18T18:12:21.237Z,38.04
2018-02-18T18:14:49.660Z,38.75
2018-02-18T18:17:18.009Z,38.89
2018-02-18T18:19:46.392Z,39.10
2018-02-18T18:22:14.748Z,39.43
2018-02-18T18:24:43.112Z,39.24
2018-02-18T18:27:11.873Z,39.05
2018-02-18T18:29:40.245Z,39.07
2018-02-18T18:32:08.602Z,39.44
2018-02-18T18:34:37.044Z,39.23
2018-02-18T18:37:05.396Z,38.75
2018-02-18T18:39:33.753Z,38.81
2018-02-18T18:42:02.125Z,38.43
2018-02-18T18:44:30.482Z,38.38
2018-02-18T18:46:58.895Z,38.69
2018-02-18T18:49:27.262Z,38.56
2018-02-18T18:51:55.618Z,38.38
2018-02-18T18:54:23.991Z,38.49
2018-02-18T18:56:52.410Z,38.26
2018-02-18T18:59:21.201Z,37.84
2018-02-18T19:01:49.561Z,38.29
2018-02-18T19:04:17.937Z,38.34
2018-02-18T19:06:46.303Z,38.22
2018-02-18T19:09:14.690Z,38.17
2018-02-18T19:11:43.047Z,38.29
2018-02-18T19:14:12.269Z,38.72
2018-02-18T19:16:40.708Z,38.86
2018-02-18T19:19:09.471Z,38.62
2018-02-18T19:21:37.820Z,38.70
2018-02-18T19:24:06.178Z,38.61
2018-02-18T19:26:34.546Z,38.57
2018-02-18T19:29:02.912Z,38.63
2018-02-18T19:31:31.266Z,38.36
2018-02-18T19:33:59.635Z,38.79
2018-02-18T19:36:28.005Z,38.65
2018-02-18T19:38:56.376Z,38.81
2018-02-18T19:41:24.800Z,39.07
2018-02-18T19:43:53.607Z,39.87
2018-02-18T19:46:22.332Z,39.71
2018-02-18T19:48:50.713Z,39.76
2018-02-18T19:51:19.097Z,39.61
2018-02-18T19:53:47.462Z,39.60
2018-02-18T19:56:15.834Z,39.34
2018-02-18T19:58:44.193Z,39.62
2018-02-18T20:01:12.561Z,39.54
2018-02-18T20:03:41.053Z,39.47
2018-02-18T20:06:09.433Z,39.16
2018-02-18T20:08:37.822Z,39.15
2018-02-18T20:11:06.221Z,39.05
2018-02-18T20:13:34.583Z,39.30
2018-02-18T20:16:02.960Z,39.30
2018-02-18T20:18:31.342Z,39.35
2018-02-18T20:20:59.728Z,39.41
2018-02-18T20:23:28.096Z,39.62
2018-02-18T20:25:56.480Z,39.54
2018-02-18T20:28:24.854Z,39.51
2018-02-18T20:30:53.209Z,39.14
2018-02-18T20:33:21.594Z,39.27
2018-02-18T20:35:49.955Z,39.53
2018-02-18T20:38:18.709Z,40.05
2018-02-18T20:40:47.112Z,39.78
2018-02-18T20:43:15.869Z,39.81
2018-02-18T20:45:44.245Z,39.73
2018-02-18T20:48:12.627Z,40.63
2018-02-18T20:50:41.073Z,41.16
2018-02-18T20:53:09.429Z,40.31
2018-02-18T20:55:38.204Z,40.09
2018-02-18T20:58:06.954Z,40.40
2018-02-18T21:00:35.327Z,41.18
2018-02-18T21:03:03.697Z,42.08
2018-02-18T21:05:32.067Z,42.32
2018-02-18T21:08:00.446Z,42.28
2018-02-18T21:10:28.825Z,41.42
2018-02-18T21:12:57.189Z,40.95
2018-02-18T21:15:26.569Z,41.16
2018-02-18T21:17:55.329Z,41.45
2018-02-18T21:20:23.698Z,40.98
2018-02-18T21:22:52.073Z,41.20
2018-02-18T21:25:20.442Z,41.90
2018-02-18T21:27:48.798Z,42.11
2018-02-18T21:30:17.233Z,42.09
2018-02-18T21:32:45.688Z,41.89
2018-02-18T21:35:14.080Z,41.59
2018-02-18T21:37:42.444Z,41.28
2018-02-18T21:40:10.813Z,40.94
2018-02-18T21:42:39.180Z,41.33
2018-02-18T21:45:07.597Z,41.64
2018-02-18T21:47:35.956Z,41.64
2018-02-18T21:50:04.333Z,41.40
2018-02-18T21:52:32.697Z,41.63
2018-02-18T21:55:01.077Z,41.49
2018-02-18T21:57:29.433Z,41.44
2018-02-18T21:59:59.521Z,41.59
2018-02-18T22:02:27.898Z,41.57
2018-02-18T22:04:56.276Z,42.11
2018-02-18T22:07:24.654Z,42.32
2018-02-18T22:09:53.034Z,43.13
2018-02-18T22:12:21.425Z,43.16
2018-02-18T22:14:50.190Z,43.08
2018-02-18T22:17:18.567Z,43.50
2018-02-18T22:19:47.048Z,43.51
2018-02-18T22:22:15.424Z,43.63
2018-02-18T22:24:43.876Z,43.93
2018-02-18T22:27:12.249Z,43.80
2018-02-18T22:29:40.669Z,43.81
2018-02-18T22:32:09.035Z,43.72
2018-02-18T22:34:37.410Z,43.66
2018-02-18T22:37:05.778Z,43.54
2018-02-18T22:39:34.169Z,43.41
2018-02-18T22:42:02.525Z,43.46
2018-02-18T22:44:30.897Z,43.53
2018-02-18T22:46:59.441Z,43.63
2018-02-18T22:49:27.885Z,43.92
2018-02-18T22:51:56.348Z,43.83
2018-02-18T22:54:24.723Z,43.97
2018-02-18T22:56:53.105Z,43.65
2018-02-18T22:59:21.475Z,43.52
2018-02-18T23:01:49.836Z,44.08
2018-02-18T23:04:18.607Z,44.26
2018-02-18T23:06:47.384Z,44.69
2018-02-18T23:09:15.773Z,45.05
2018-02-18T23:11:44.280Z,44.60
2018-02-18T23:14:12.669Z,44.83
2018-02-18T23:16:41.055Z,44.52
2018-02-18T23:19:09.427Z,43.77
2018-02-18T23:21:37.792Z,43.72
2018-02-18T23:24:06.565Z,44.94
2018-02-18T23:26:35.321Z,44.62
2018-02-18T23:29:03.692Z,44.17
2018-02-18T23:31:32.050Z,44.17
2018-02-18T23:34:00.425Z,44.24
2018-02-18T23:36:28.793Z,44.05
2018-02-18T23:38:57.173Z,44.93
2018-02-18T23:41:25.525Z,44.65
2018-02-18T23:43:55.246Z,44.58
2018-02-18T23:46:23.616Z,44.93
2018-02-18T23:48:52.393Z,44.93
2018-02-18T23:51:20.759Z,45.59
2018-02-18T23:53:49.120Z,45.99
2018-02-18T23:56:17.472Z,45.74
2018-02-18T23:58:45.873Z,45.28
